<?xml version="1.0" encoding="UTF-8" standalone="no" ?><gpx xmlns="http://www.topografix.com/GPX/1/1" xmlns:gpxx="http://www.garmin.com/xmlschemas/GpxExtensions/v3" xmlns:wptx1="http://www.garmin.com/xmlschemas/WaypointExtension/v1" xmlns:gpxtpx="http://www.garmin.com/xmlschemas/TrackPointExtension/v1" creator="Dakota 20" version="1.1" xmlns:xsi="http://www.w3.org/2001/XMLSchema-instance" xsi:schemaLocation="http://www.topografix.com/GPX/1/1 http://www.topografix.com/GPX/1/1/gpx.xsd http://www.garmin.com/xmlschemas/GpxExtensions/v3 http://www8.garmin.com/xmlschemas/GpxExtensionsv3.xsd http://www.garmin.com/xmlschemas/WaypointExtension/v1 http://www8.garmin.com/xmlschemas/WaypointExtensionv1.xsd http://www.garmin.com/xmlschemas/TrackPointExtension/v1 http://www.garmin.com/xmlschemas/TrackPointExtensionv1.xsd"><metadata><link href="http://www.garmin.com"><text>Garmin International</text></link><time>2017-04-26T13:44:30Z</time></metadata><trk><name>Current Track: 26 APR 2017 10:03</name><extensions><gpxx:TrackExtension><gpxx:DisplayColor>Cyan</gpxx:DisplayColor></gpxx:TrackExtension></extensions><trkseg><trkpt lat="51.8987259921" lon="-1.9494137540"><ele>195.28</ele><time>2017-04-26T09:03:34Z</time></trkpt><trkpt lat="51.8987252377" lon="-1.9494120777"><ele>197.21</ele><time>2017-04-26T09:03:37Z</time></trkpt><trkpt lat="51.8987261597" lon="-1.9494120777"><ele>193.84</ele><time>2017-04-26T09:03:39Z</time></trkpt><trkpt lat="51.8987260759" lon="-1.9494125806"><ele>190.48</ele><time>2017-04-26T09:03:40Z</time></trkpt><trkpt lat="51.8987261597" lon="-1.9494133350"><ele>195.77</ele><time>2017-04-26T09:03:41Z</time></trkpt><trkpt lat="51.8987423368" lon="-1.9494015165"><ele>194.32</ele><time>2017-04-26T09:04:02Z</time></trkpt><trkpt lat="51.8988292571" lon="-1.9494001754"><ele>190.96</ele><time>2017-04-26T09:04:19Z</time></trkpt><trkpt lat="51.8988316879" lon="-1.9494031090"><ele>197.69</ele><time>2017-04-26T09:04:20Z</time></trkpt><trkpt lat="51.8988381419" lon="-1.9494077191"><ele>194.80</ele><time>2017-04-26T09:04:22Z</time></trkpt><trkpt lat="51.8989749346" lon="-1.9495075475"><ele>194.32</ele><time>2017-04-26T09:04:38Z</time></trkpt><trkpt lat="51.8990489468" lon="-1.9496843219"><ele>192.40</ele><time>2017-04-26T09:04:56Z</time></trkpt><trkpt lat="51.8989844061" lon="-1.9498884212"><ele>193.36</ele><time>2017-04-26T09:05:09Z</time></trkpt><trkpt lat="51.8989295885" lon="-1.9501190074"><ele>191.44</ele><time>2017-04-26T09:05:29Z</time></trkpt><trkpt lat="51.8989357073" lon="-1.9502323307"><ele>190.96</ele><time>2017-04-26T09:05:47Z</time></trkpt><trkpt lat="51.8989375513" lon="-1.9503780920"><ele>188.08</ele><time>2017-04-26T09:06:02Z</time></trkpt><trkpt lat="51.8988800514" lon="-1.9506439660"><ele>184.71</ele><time>2017-04-26T09:06:16Z</time></trkpt><trkpt lat="51.8987251539" lon="-1.9508458022"><ele>182.79</ele><time>2017-04-26T09:06:34Z</time></trkpt><trkpt lat="51.8986477889" lon="-1.9509638194"><ele>182.31</ele><time>2017-04-26T09:06:45Z</time></trkpt><trkpt lat="51.8985280953" lon="-1.9511708524"><ele>181.83</ele><time>2017-04-26T09:07:06Z</time></trkpt><trkpt lat="51.8984923884" lon="-1.9512418471"><ele>181.35</ele><time>2017-04-26T09:07:22Z</time></trkpt><trkpt lat="51.8984961603" lon="-1.9512788951"><ele>181.35</ele><time>2017-04-26T09:07:39Z</time></trkpt><trkpt lat="51.8984038755" lon="-1.9514675718"><ele>180.87</ele><time>2017-04-26T09:07:57Z</time></trkpt><trkpt lat="51.8983657379" lon="-1.9514938910"><ele>181.35</ele><time>2017-04-26T09:08:03Z</time></trkpt><trkpt lat="51.8982369918" lon="-1.9517000858"><ele>181.83</ele><time>2017-04-26T09:08:20Z</time></trkpt><trkpt lat="51.8980837706" lon="-1.9518240541"><ele>181.83</ele><time>2017-04-26T09:08:36Z</time></trkpt><trkpt lat="51.8979670107" lon="-1.9519475196"><ele>182.79</ele><time>2017-04-26T09:08:51Z</time></trkpt><trkpt lat="51.8978309724" lon="-1.9520791993"><ele>184.71</ele><time>2017-04-26T09:09:09Z</time></trkpt><trkpt lat="51.8977438845" lon="-1.9522502739"><ele>186.15</ele><time>2017-04-26T09:09:24Z</time></trkpt><trkpt lat="51.8976199161" lon="-1.9523868989"><ele>185.67</ele><time>2017-04-26T09:09:42Z</time></trkpt><trkpt lat="51.8974957801" lon="-1.9525200874"><ele>186.15</ele><time>2017-04-26T09:09:59Z</time></trkpt><trkpt lat="51.8973734882" lon="-1.9526209217"><ele>187.11</ele><time>2017-04-26T09:10:16Z</time></trkpt><trkpt lat="51.8972700555" lon="-1.9527402800"><ele>186.63</ele><time>2017-04-26T09:10:35Z</time></trkpt><trkpt lat="51.8971441593" lon="-1.9528490771"><ele>188.08</ele><time>2017-04-26T09:10:53Z</time></trkpt><trkpt lat="51.8969963025" lon="-1.9529710338"><ele>188.08</ele><time>2017-04-26T09:11:11Z</time></trkpt><trkpt lat="51.8969408982" lon="-1.9530305453"><ele>187.59</ele><time>2017-04-26T09:11:29Z</time></trkpt><trkpt lat="51.8969434127" lon="-1.9530202355"><ele>187.11</ele><time>2017-04-26T09:11:49Z</time></trkpt><trkpt lat="51.8969203625" lon="-1.9530346524"><ele>187.59</ele><time>2017-04-26T09:12:10Z</time></trkpt><trkpt lat="51.8968917802" lon="-1.9530705269"><ele>187.59</ele><time>2017-04-26T09:12:14Z</time></trkpt><trkpt lat="51.8967050314" lon="-1.9531943277"><ele>187.59</ele><time>2017-04-26T09:12:33Z</time></trkpt><trkpt lat="51.8966797180" lon="-1.9532203954"><ele>187.11</ele><time>2017-04-26T09:12:37Z</time></trkpt><trkpt lat="51.8965562526" lon="-1.9532975927"><ele>187.11</ele><time>2017-04-26T09:12:51Z</time></trkpt><trkpt lat="51.8963958230" lon="-1.9533642288"><ele>186.15</ele><time>2017-04-26T09:13:10Z</time></trkpt><trkpt lat="51.8962559290" lon="-1.9534058869"><ele>186.15</ele><time>2017-04-26T09:13:27Z</time></trkpt><trkpt lat="51.8961095810" lon="-1.9534738641"><ele>186.15</ele><time>2017-04-26T09:13:45Z</time></trkpt><trkpt lat="51.8959605508" lon="-1.9535369799"><ele>185.19</ele><time>2017-04-26T09:14:02Z</time></trkpt><trkpt lat="51.8958473951" lon="-1.9535619579"><ele>185.67</ele><time>2017-04-26T09:14:20Z</time></trkpt><trkpt lat="51.8958372530" lon="-1.9535675738"><ele>185.67</ele><time>2017-04-26T09:14:43Z</time></trkpt><trkpt lat="51.8958175555" lon="-1.9535765424"><ele>184.71</ele><time>2017-04-26T09:15:02Z</time></trkpt><trkpt lat="51.8958157953" lon="-1.9535797276"><ele>185.67</ele><time>2017-04-26T09:15:09Z</time></trkpt><trkpt lat="51.8957936671" lon="-1.9535538275"><ele>183.75</ele><time>2017-04-26T09:15:23Z</time></trkpt><trkpt lat="51.8958031386" lon="-1.9536136743"><ele>186.15</ele><time>2017-04-26T09:15:45Z</time></trkpt><trkpt lat="51.8958117720" lon="-1.9535965752"><ele>185.19</ele><time>2017-04-26T09:15:47Z</time></trkpt><trkpt lat="51.8957027234" lon="-1.9536872674"><ele>184.71</ele><time>2017-04-26T09:16:00Z</time></trkpt><trkpt lat="51.8956116959" lon="-1.9537266623"><ele>184.23</ele><time>2017-04-26T09:16:14Z</time></trkpt><trkpt lat="51.8954514340" lon="-1.9537746068"><ele>181.83</ele><time>2017-04-26T09:16:30Z</time></trkpt><trkpt lat="51.8953350931" lon="-1.9537477009"><ele>182.31</ele><time>2017-04-26T09:16:40Z</time></trkpt><trkpt lat="51.8951570615" lon="-1.9537467789"><ele>185.19</ele><time>2017-04-26T09:16:58Z</time></trkpt><trkpt lat="51.8950499408" lon="-1.9537012652"><ele>185.19</ele><time>2017-04-26T09:17:17Z</time></trkpt><trkpt lat="51.8949966319" lon="-1.9536948949"><ele>186.15</ele><time>2017-04-26T09:17:34Z</time></trkpt><trkpt lat="51.8949204404" lon="-1.9536598586"><ele>187.59</ele><time>2017-04-26T09:17:46Z</time></trkpt><trkpt lat="51.8948092125" lon="-1.9536415022"><ele>189.04</ele><time>2017-04-26T09:18:03Z</time></trkpt><trkpt lat="51.8948087096" lon="-1.9536374789"><ele>188.56</ele><time>2017-04-26T09:18:29Z</time></trkpt><trkpt lat="51.8947954662" lon="-1.9536853395"><ele>189.04</ele><time>2017-04-26T09:18:42Z</time></trkpt><trkpt lat="51.8948790338" lon="-1.9537977409"><ele>188.56</ele><time>2017-04-26T09:19:02Z</time></trkpt><trkpt lat="51.8946246430" lon="-1.9536109921"><ele>190.00</ele><time>2017-04-26T09:19:18Z</time></trkpt><trkpt lat="51.8945489544" lon="-1.9535180368"><ele>190.00</ele><time>2017-04-26T09:19:33Z</time></trkpt><trkpt lat="51.8945397343" lon="-1.9535518996"><ele>189.52</ele><time>2017-04-26T09:19:59Z</time></trkpt><trkpt lat="51.8944879342" lon="-1.9536344614"><ele>191.92</ele><time>2017-04-26T09:20:18Z</time></trkpt><trkpt lat="51.8943540752" lon="-1.9536980800"><ele>192.88</ele><time>2017-04-26T09:20:37Z</time></trkpt><trkpt lat="51.8942052964" lon="-1.9537062943"><ele>194.32</ele><time>2017-04-26T09:20:57Z</time></trkpt><trkpt lat="51.8939484749" lon="-1.9537952263"><ele>194.80</ele><time>2017-04-26T09:21:16Z</time></trkpt><trkpt lat="51.8938190583" lon="-1.9538555760"><ele>196.73</ele><time>2017-04-26T09:21:32Z</time></trkpt><trkpt lat="51.8937891349" lon="-1.9538544025"><ele>196.25</ele><time>2017-04-26T09:21:54Z</time></trkpt><trkpt lat="51.8937894702" lon="-1.9538450148"><ele>196.25</ele><time>2017-04-26T09:22:18Z</time></trkpt><trkpt lat="51.8937824294" lon="-1.9539219607"><ele>196.73</ele><time>2017-04-26T09:22:39Z</time></trkpt><trkpt lat="51.8937156256" lon="-1.9541258086"><ele>197.69</ele><time>2017-04-26T09:22:58Z</time></trkpt><trkpt lat="51.8936870433" lon="-1.9544291496"><ele>199.61</ele><time>2017-04-26T09:23:19Z</time></trkpt><trkpt lat="51.8936893903" lon="-1.9546726439"><ele>201.05</ele><time>2017-04-26T09:23:40Z</time></trkpt><trkpt lat="51.8936339859" lon="-1.9549676869"><ele>203.46</ele><time>2017-04-26T09:24:01Z</time></trkpt><trkpt lat="51.8936128635" lon="-1.9550877158"><ele>203.46</ele><time>2017-04-26T09:24:24Z</time></trkpt><trkpt lat="51.8936074991" lon="-1.9552552700"><ele>204.90</ele><time>2017-04-26T09:24:44Z</time></trkpt><trkpt lat="51.8936106004" lon="-1.9552698545"><ele>205.38</ele><time>2017-04-26T09:25:06Z</time></trkpt><trkpt lat="51.8935997877" lon="-1.9553287793"><ele>205.86</ele><time>2017-04-26T09:25:24Z</time></trkpt><trkpt lat="51.8936111033" lon="-1.9555845950"><ele>208.74</ele><time>2017-04-26T09:25:44Z</time></trkpt><trkpt lat="51.8936085049" lon="-1.9557213876"><ele>209.70</ele><time>2017-04-26T09:26:02Z</time></trkpt><trkpt lat="51.8936041463" lon="-1.9559721742"><ele>211.63</ele><time>2017-04-26T09:26:23Z</time></trkpt><trkpt lat="51.8935854547" lon="-1.9562614337"><ele>212.11</ele><time>2017-04-26T09:26:46Z</time></trkpt><trkpt lat="51.8935612310" lon="-1.9564657006"><ele>214.99</ele><time>2017-04-26T09:26:59Z</time></trkpt><trkpt lat="51.8935956806" lon="-1.9565796945"><ele>215.47</ele><time>2017-04-26T09:27:17Z</time></trkpt><trkpt lat="51.8935342412" lon="-1.9571995363"><ele>217.88</ele><time>2017-04-26T09:27:37Z</time></trkpt><trkpt lat="51.8935149629" lon="-1.9573958404"><ele>219.32</ele><time>2017-04-26T09:27:54Z</time></trkpt><trkpt lat="51.8935129512" lon="-1.9575616345"><ele>219.80</ele><time>2017-04-26T09:28:13Z</time></trkpt><trkpt lat="51.8935007136" lon="-1.9576959964"><ele>220.76</ele><time>2017-04-26T09:28:23Z</time></trkpt><trkpt lat="51.8934903201" lon="-1.9579125009"><ele>222.68</ele><time>2017-04-26T09:28:38Z</time></trkpt><trkpt lat="51.8934766576" lon="-1.9580729306"><ele>223.64</ele><time>2017-04-26T09:28:55Z</time></trkpt><trkpt lat="51.8934696168" lon="-1.9582595956"><ele>225.57</ele><time>2017-04-26T09:29:11Z</time></trkpt><trkpt lat="51.8934450578" lon="-1.9585487712"><ele>227.01</ele><time>2017-04-26T09:29:32Z</time></trkpt><trkpt lat="51.8934336584" lon="-1.9585754257"><ele>227.97</ele><time>2017-04-26T09:29:51Z</time></trkpt><trkpt lat="51.8934359215" lon="-1.9585847296"><ele>227.01</ele><time>2017-04-26T09:30:14Z</time></trkpt><trkpt lat="51.8934307247" lon="-1.9586035889"><ele>228.93</ele><time>2017-04-26T09:30:32Z</time></trkpt><trkpt lat="51.8934178166" lon="-1.9586118031"><ele>227.97</ele><time>2017-04-26T09:30:48Z</time></trkpt><trkpt lat="51.8934125360" lon="-1.9586130604"><ele>228.45</ele><time>2017-04-26T09:31:12Z</time></trkpt><trkpt lat="51.8933303095" lon="-1.9586703926"><ele>228.93</ele><time>2017-04-26T09:31:25Z</time></trkpt><trkpt lat="51.8932105321" lon="-1.9588140585"><ele>231.33</ele><time>2017-04-26T09:31:41Z</time></trkpt><trkpt lat="51.8931458239" lon="-1.9589221850"><ele>231.33</ele><time>2017-04-26T09:31:51Z</time></trkpt><trkpt lat="51.8931131344" lon="-1.9591611531"><ele>232.78</ele><time>2017-04-26T09:32:07Z</time></trkpt><trkpt lat="51.8930000626" lon="-1.9593806751"><ele>233.74</ele><time>2017-04-26T09:32:27Z</time></trkpt><trkpt lat="51.8928693887" lon="-1.9595644902"><ele>235.66</ele><time>2017-04-26T09:32:45Z</time></trkpt><trkpt lat="51.8927755114" lon="-1.9597447012"><ele>236.14</ele><time>2017-04-26T09:33:01Z</time></trkpt><trkpt lat="51.8926951289" lon="-1.9598772191"><ele>236.62</ele><time>2017-04-26T09:33:15Z</time></trkpt><trkpt lat="51.8925983179" lon="-1.9600363914"><ele>237.58</ele><time>2017-04-26T09:33:30Z</time></trkpt><trkpt lat="51.8925069552" lon="-1.9602139201"><ele>238.54</ele><time>2017-04-26T09:33:46Z</time></trkpt><trkpt lat="51.8923876807" lon="-1.9603974838"><ele>238.06</ele><time>2017-04-26T09:34:03Z</time></trkpt><trkpt lat="51.8922869302" lon="-1.9605897646"><ele>238.06</ele><time>2017-04-26T09:34:19Z</time></trkpt><trkpt lat="51.8921978306" lon="-1.9607488532"><ele>239.99</ele><time>2017-04-26T09:34:33Z</time></trkpt><trkpt lat="51.8920956552" lon="-1.9609334227"><ele>240.95</ele><time>2017-04-26T09:34:49Z</time></trkpt><trkpt lat="51.8919800688" lon="-1.9610911701"><ele>242.39</ele><time>2017-04-26T09:35:05Z</time></trkpt><trkpt lat="51.8918757141" lon="-1.9612983707"><ele>243.35</ele><time>2017-04-26T09:35:22Z</time></trkpt><trkpt lat="51.8917831779" lon="-1.9614579622"><ele>244.31</ele><time>2017-04-26T09:35:37Z</time></trkpt><trkpt lat="51.8916569464" lon="-1.9616540149"><ele>243.83</ele><time>2017-04-26T09:35:53Z</time></trkpt><trkpt lat="51.8915537652" lon="-1.9618359860"><ele>244.31</ele><time>2017-04-26T09:36:10Z</time></trkpt><trkpt lat="51.8915016297" lon="-1.9618981797"><ele>244.79</ele><time>2017-04-26T09:36:26Z</time></trkpt><trkpt lat="51.8915037252" lon="-1.9619009458"><ele>244.31</ele><time>2017-04-26T09:36:44Z</time></trkpt><trkpt lat="51.8915002886" lon="-1.9619039632"><ele>244.79</ele><time>2017-04-26T09:37:02Z</time></trkpt><trkpt lat="51.8914945051" lon="-1.9619075675"><ele>244.79</ele><time>2017-04-26T09:37:27Z</time></trkpt><trkpt lat="51.8914882187" lon="-1.9619092438"><ele>244.31</ele><time>2017-04-26T09:37:45Z</time></trkpt><trkpt lat="51.8914805073" lon="-1.9619177096"><ele>244.79</ele><time>2017-04-26T09:38:06Z</time></trkpt><trkpt lat="51.8914807588" lon="-1.9619245827"><ele>244.79</ele><time>2017-04-26T09:38:27Z</time></trkpt><trkpt lat="51.8914427888" lon="-1.9620161969"><ele>244.79</ele><time>2017-04-26T09:38:44Z</time></trkpt><trkpt lat="51.8914363347" lon="-1.9620271772"><ele>244.79</ele><time>2017-04-26T09:38:45Z</time></trkpt><trkpt lat="51.8913600594" lon="-1.9622316118"><ele>245.27</ele><time>2017-04-26T09:39:02Z</time></trkpt><trkpt lat="51.8912844546" lon="-1.9624288380"><ele>245.75</ele><time>2017-04-26T09:39:17Z</time></trkpt><trkpt lat="51.8912212551" lon="-1.9625823945"><ele>246.72</ele><time>2017-04-26T09:39:29Z</time></trkpt><trkpt lat="51.8911556248" lon="-1.9627431594"><ele>246.72</ele><time>2017-04-26T09:39:43Z</time></trkpt><trkpt lat="51.8910836242" lon="-1.9629461691"><ele>247.68</ele><time>2017-04-26T09:40:00Z</time></trkpt><trkpt lat="51.8910236936" lon="-1.9631370250"><ele>247.68</ele><time>2017-04-26T09:40:14Z</time></trkpt><trkpt lat="51.8909534533" lon="-1.9634252787"><ele>249.12</ele><time>2017-04-26T09:40:33Z</time></trkpt><trkpt lat="51.8909190875" lon="-1.9635676872"><ele>250.08</ele><time>2017-04-26T09:40:44Z</time></trkpt><trkpt lat="51.8908127211" lon="-1.9638316333"><ele>250.56</ele><time>2017-04-26T09:41:04Z</time></trkpt><trkpt lat="51.8908048421" lon="-1.9638470560"><ele>249.12</ele><time>2017-04-26T09:41:05Z</time></trkpt><trkpt lat="51.8906641100" lon="-1.9640436955"><ele>249.60</ele><time>2017-04-26T09:41:26Z</time></trkpt><trkpt lat="51.8905133195" lon="-1.9642442744"><ele>249.60</ele><time>2017-04-26T09:41:45Z</time></trkpt><trkpt lat="51.8903690670" lon="-1.9644575939"><ele>246.72</ele><time>2017-04-26T09:42:06Z</time></trkpt><trkpt lat="51.8902368844" lon="-1.9646717515"><ele>245.27</ele><time>2017-04-26T09:42:25Z</time></trkpt><trkpt lat="51.8901446834" lon="-1.9647890143"><ele>244.31</ele><time>2017-04-26T09:42:38Z</time></trkpt><trkpt lat="51.8901221361" lon="-1.9648169260"><ele>244.79</ele><time>2017-04-26T09:42:41Z</time></trkpt><trkpt lat="51.8899684120" lon="-1.9650189299"><ele>244.79</ele><time>2017-04-26T09:43:01Z</time></trkpt><trkpt lat="51.8898346368" lon="-1.9651995599"><ele>244.31</ele><time>2017-04-26T09:43:19Z</time></trkpt><trkpt lat="51.8897230737" lon="-1.9653573073"><ele>243.83</ele><time>2017-04-26T09:43:35Z</time></trkpt><trkpt lat="51.8896568567" lon="-1.9654355105"><ele>244.79</ele><time>2017-04-26T09:43:54Z</time></trkpt><trkpt lat="51.8896535039" lon="-1.9654468261"><ele>245.75</ele><time>2017-04-26T09:44:18Z</time></trkpt><trkpt lat="51.8896447867" lon="-1.9654625840"><ele>244.31</ele><time>2017-04-26T09:44:25Z</time></trkpt><trkpt lat="51.8895962555" lon="-1.9655582216"><ele>243.83</ele><time>2017-04-26T09:44:41Z</time></trkpt><trkpt lat="51.8895939086" lon="-1.9655731414"><ele>243.83</ele><time>2017-04-26T09:45:01Z</time></trkpt><trkpt lat="51.8895965908" lon="-1.9655846246"><ele>245.27</ele><time>2017-04-26T09:45:23Z</time></trkpt><trkpt lat="51.8895582855" lon="-1.9656158891"><ele>244.31</ele><time>2017-04-26T09:45:36Z</time></trkpt><trkpt lat="51.8895558547" lon="-1.9656196609"><ele>244.31</ele><time>2017-04-26T09:46:01Z</time></trkpt><trkpt lat="51.8895457964" lon="-1.9656236004"><ele>245.27</ele><time>2017-04-26T09:46:20Z</time></trkpt><trkpt lat="51.8895378336" lon="-1.9656348322"><ele>244.79</ele><time>2017-04-26T09:46:46Z</time></trkpt><trkpt lat="51.8894910626" lon="-1.9657129515"><ele>245.75</ele><time>2017-04-26T09:47:07Z</time></trkpt><trkpt lat="51.8894066568" lon="-1.9658132829"><ele>245.27</ele><time>2017-04-26T09:47:21Z</time></trkpt><trkpt lat="51.8893108517" lon="-1.9659478962"><ele>246.23</ele><time>2017-04-26T09:47:37Z</time></trkpt><trkpt lat="51.8892067485" lon="-1.9661012851"><ele>246.23</ele><time>2017-04-26T09:47:54Z</time></trkpt><trkpt lat="51.8890995439" lon="-1.9662333839"><ele>247.20</ele><time>2017-04-26T09:48:09Z</time></trkpt><trkpt lat="51.8890035711" lon="-1.9663769659"><ele>246.72</ele><time>2017-04-26T09:48:24Z</time></trkpt><trkpt lat="51.8889075145" lon="-1.9665211346"><ele>247.68</ele><time>2017-04-26T09:48:39Z</time></trkpt><trkpt lat="51.8887992203" lon="-1.9666489586"><ele>248.16</ele><time>2017-04-26T09:48:54Z</time></trkpt><trkpt lat="51.8886985537" lon="-1.9667817280"><ele>248.64</ele><time>2017-04-26T09:49:09Z</time></trkpt><trkpt lat="51.8885935284" lon="-1.9669455104"><ele>248.64</ele><time>2017-04-26T09:49:26Z</time></trkpt><trkpt lat="51.8885229528" lon="-1.9671382941"><ele>248.64</ele><time>2017-04-26T09:49:45Z</time></trkpt><trkpt lat="51.8884951249" lon="-1.9671893399"><ele>248.16</ele><time>2017-04-26T09:50:00Z</time></trkpt><trkpt lat="51.8884983100" lon="-1.9671879988"><ele>247.68</ele><time>2017-04-26T09:50:31Z</time></trkpt><trkpt lat="51.8884986453" lon="-1.9671861548"><ele>248.64</ele><time>2017-04-26T09:51:00Z</time></trkpt><trkpt lat="51.8884978909" lon="-1.9671848975"><ele>248.16</ele><time>2017-04-26T09:51:28Z</time></trkpt><trkpt lat="51.8884939514" lon="-1.9671832211"><ele>248.64</ele><time>2017-04-26T09:51:54Z</time></trkpt><trkpt lat="51.8884325959" lon="-1.9673483446"><ele>248.64</ele><time>2017-04-26T09:52:11Z</time></trkpt><trkpt lat="51.8883767724" lon="-1.9674251229"><ele>248.16</ele><time>2017-04-26T09:52:27Z</time></trkpt><trkpt lat="51.8883633614" lon="-1.9675330818"><ele>247.68</ele><time>2017-04-26T09:52:44Z</time></trkpt><trkpt lat="51.8883092143" lon="-1.9677081797"><ele>246.72</ele><time>2017-04-26T09:53:00Z</time></trkpt><trkpt lat="51.8882978987" lon="-1.9677262846"><ele>247.20</ele><time>2017-04-26T09:53:13Z</time></trkpt><trkpt lat="51.8882856611" lon="-1.9677833654"><ele>246.72</ele><time>2017-04-26T09:53:18Z</time></trkpt><trkpt lat="51.8882242218" lon="-1.9680416118"><ele>238.06</ele><time>2017-04-26T09:53:35Z</time></trkpt><trkpt lat="51.8882220425" lon="-1.9680550229"><ele>246.72</ele><time>2017-04-26T09:53:36Z</time></trkpt><trkpt lat="51.8881851621" lon="-1.9682246726"><ele>245.27</ele><time>2017-04-26T09:53:51Z</time></trkpt><trkpt lat="51.8881703261" lon="-1.9683190528"><ele>246.23</ele><time>2017-04-26T09:53:57Z</time></trkpt><trkpt lat="51.8881489523" lon="-1.9684271794"><ele>246.23</ele><time>2017-04-26T09:54:11Z</time></trkpt><trkpt lat="51.8880896922" lon="-1.9687580131"><ele>246.72</ele><time>2017-04-26T09:54:32Z</time></trkpt><trkpt lat="51.8880440947" lon="-1.9689923711"><ele>245.27</ele><time>2017-04-26T09:54:49Z</time></trkpt><trkpt lat="51.8880019337" lon="-1.9691358693"><ele>244.31</ele><time>2017-04-26T09:54:59Z</time></trkpt><trkpt lat="51.8879617006" lon="-1.9693594147"><ele>243.83</ele><time>2017-04-26T09:55:15Z</time></trkpt><trkpt lat="51.8879145943" lon="-1.9695159048"><ele>243.35</ele><time>2017-04-26T09:55:31Z</time></trkpt><trkpt lat="51.8878718466" lon="-1.9697051682"><ele>242.87</ele><time>2017-04-26T09:55:48Z</time></trkpt><trkpt lat="51.8878103234" lon="-1.9699386042"><ele>242.39</ele><time>2017-04-26T09:56:06Z</time></trkpt><trkpt lat="51.8877719343" lon="-1.9701594673"><ele>241.91</ele><time>2017-04-26T09:56:22Z</time></trkpt><trkpt lat="51.8877332937" lon="-1.9703566097"><ele>241.91</ele><time>2017-04-26T09:56:35Z</time></trkpt><trkpt lat="51.8876714353" lon="-1.9706339668"><ele>240.95</ele><time>2017-04-26T09:56:53Z</time></trkpt><trkpt lat="51.8876283523" lon="-1.9708304387"><ele>239.99</ele><time>2017-04-26T09:57:08Z</time></trkpt><trkpt lat="51.8875778094" lon="-1.9710714184"><ele>239.02</ele><time>2017-04-26T09:57:25Z</time></trkpt><trkpt lat="51.8875410967" lon="-1.9713274017"><ele>237.10</ele><time>2017-04-26T09:57:44Z</time></trkpt><trkpt lat="51.8875029590" lon="-1.9715491030"><ele>236.62</ele><time>2017-04-26T09:58:01Z</time></trkpt><trkpt lat="51.8874552660" lon="-1.9717976265"><ele>235.18</ele><time>2017-04-26T09:58:21Z</time></trkpt><trkpt lat="51.8874480575" lon="-1.9719012268"><ele>233.74</ele><time>2017-04-26T09:58:34Z</time></trkpt><trkpt lat="51.8874457944" lon="-1.9719396997"><ele>234.22</ele><time>2017-04-26T09:58:50Z</time></trkpt><trkpt lat="51.8874433637" lon="-1.9719345868"><ele>234.22</ele><time>2017-04-26T09:59:26Z</time></trkpt><trkpt lat="51.8874427769" lon="-1.9719690364"><ele>233.74</ele><time>2017-04-26T09:59:51Z</time></trkpt><trkpt lat="51.8874274381" lon="-1.9721178152"><ele>233.26</ele><time>2017-04-26T10:00:06Z</time></trkpt><trkpt lat="51.8874315452" lon="-1.9721001294"><ele>233.26</ele><time>2017-04-26T10:00:29Z</time></trkpt><trkpt lat="51.8874266837" lon="-1.9721199945"><ele>233.26</ele><time>2017-04-26T10:00:42Z</time></trkpt><trkpt lat="51.8874416035" lon="-1.9721838646"><ele>232.30</ele><time>2017-04-26T10:01:07Z</time></trkpt><trkpt lat="51.8874343112" lon="-1.9722748920"><ele>230.85</ele><time>2017-04-26T10:01:24Z</time></trkpt><trkpt lat="51.8874334730" lon="-1.9722759817"><ele>231.33</ele><time>2017-04-26T10:01:25Z</time></trkpt><trkpt lat="51.8874181341" lon="-1.9723089226"><ele>232.78</ele><time>2017-04-26T10:01:28Z</time></trkpt><trkpt lat="51.8874306232" lon="-1.9723043963"><ele>232.30</ele><time>2017-04-26T10:01:42Z</time></trkpt><trkpt lat="51.8874462135" lon="-1.9723003730"><ele>232.30</ele><time>2017-04-26T10:02:04Z</time></trkpt><trkpt lat="51.8874498177" lon="-1.9723002892"><ele>232.30</ele><time>2017-04-26T10:02:25Z</time></trkpt><trkpt lat="51.8874491472" lon="-1.9722953439"><ele>232.30</ele><time>2017-04-26T10:02:55Z</time></trkpt><trkpt lat="51.8874532543" lon="-1.9723120239"><ele>232.30</ele><time>2017-04-26T10:03:15Z</time></trkpt><trkpt lat="51.8874459621" lon="-1.9723023009"><ele>232.78</ele><time>2017-04-26T10:03:35Z</time></trkpt><trkpt lat="51.8874126021" lon="-1.9723576214"><ele>231.81</ele><time>2017-04-26T10:03:52Z</time></trkpt><trkpt lat="51.8874120992" lon="-1.9723595493"><ele>231.81</ele><time>2017-04-26T10:04:15Z</time></trkpt><trkpt lat="51.8874438666" lon="-1.9723183941"><ele>232.78</ele><time>2017-04-26T10:04:30Z</time></trkpt><trkpt lat="51.8874565233" lon="-1.9723315537"><ele>232.78</ele><time>2017-04-26T10:04:54Z</time></trkpt><trkpt lat="51.8874282762" lon="-1.9723054022"><ele>232.30</ele><time>2017-04-26T10:05:13Z</time></trkpt><trkpt lat="51.8874312099" lon="-1.9723073300"><ele>232.30</ele><time>2017-04-26T10:05:45Z</time></trkpt><trkpt lat="51.8874059804" lon="-1.9723412767"><ele>231.81</ele><time>2017-04-26T10:06:17Z</time></trkpt><trkpt lat="51.8874130212" lon="-1.9723487366"><ele>231.33</ele><time>2017-04-26T10:06:38Z</time></trkpt><trkpt lat="51.8874005321" lon="-1.9723401871"><ele>231.81</ele><time>2017-04-26T10:07:05Z</time></trkpt><trkpt lat="51.8874017894" lon="-1.9723406062"><ele>231.81</ele><time>2017-04-26T10:07:37Z</time></trkpt><trkpt lat="51.8874030467" lon="-1.9723386783"><ele>231.81</ele><time>2017-04-26T10:08:05Z</time></trkpt><trkpt lat="51.8874053936" lon="-1.9723371696"><ele>232.30</ele><time>2017-04-26T10:08:37Z</time></trkpt><trkpt lat="51.8874021247" lon="-1.9723241776"><ele>231.81</ele><time>2017-04-26T10:09:02Z</time></trkpt><trkpt lat="51.8874100875" lon="-1.9723274466"><ele>231.81</ele><time>2017-04-26T10:09:21Z</time></trkpt><trkpt lat="51.8874078244" lon="-1.9723300450"><ele>231.81</ele><time>2017-04-26T10:09:51Z</time></trkpt><trkpt lat="51.8874242529" lon="-1.9723038934"><ele>231.81</ele><time>2017-04-26T10:10:06Z</time></trkpt><trkpt lat="51.8874100037" lon="-1.9723285362"><ele>231.81</ele><time>2017-04-26T10:10:22Z</time></trkpt><trkpt lat="51.8874077406" lon="-1.9723375048"><ele>232.30</ele><time>2017-04-26T10:10:43Z</time></trkpt><trkpt lat="51.8874335568" lon="-1.9723085873"><ele>232.30</ele><time>2017-04-26T10:10:58Z</time></trkpt><trkpt lat="51.8874580320" lon="-1.9723432884"><ele>232.30</ele><time>2017-04-26T10:11:13Z</time></trkpt><trkpt lat="51.8874568585" lon="-1.9725276902"><ele>231.33</ele><time>2017-04-26T10:11:29Z</time></trkpt><trkpt lat="51.8874495663" lon="-1.9727042131"><ele>229.89</ele><time>2017-04-26T10:11:45Z</time></trkpt><trkpt lat="51.8874484766" lon="-1.9727508165"><ele>226.53</ele><time>2017-04-26T10:11:50Z</time></trkpt><trkpt lat="51.8874506559" lon="-1.9727405906"><ele>230.85</ele><time>2017-04-26T10:11:51Z</time></trkpt><trkpt lat="51.8874544278" lon="-1.9727348909"><ele>226.05</ele><time>2017-04-26T10:11:52Z</time></trkpt><trkpt lat="51.8874549307" lon="-1.9727321249"><ele>229.89</ele><time>2017-04-26T10:11:53Z</time></trkpt><trkpt lat="51.8874588702" lon="-1.9727411773"><ele>228.45</ele><time>2017-04-26T10:11:56Z</time></trkpt><trkpt lat="51.8874614686" lon="-1.9727327954"><ele>227.97</ele><time>2017-04-26T10:12:25Z</time></trkpt><trkpt lat="51.8874652404" lon="-1.9727208931"><ele>227.01</ele><time>2017-04-26T10:12:50Z</time></trkpt><trkpt lat="51.8874653243" lon="-1.9727205578"><ele>228.93</ele><time>2017-04-26T10:12:53Z</time></trkpt><trkpt lat="51.8874653243" lon="-1.9727203064"><ele>219.80</ele><time>2017-04-26T10:12:58Z</time></trkpt><trkpt lat="51.8874653243" lon="-1.9727203064"><ele>230.37</ele><time>2017-04-26T10:12:59Z</time></trkpt><trkpt lat="51.8874742929" lon="-1.9726884551"><ele>226.53</ele><time>2017-04-26T10:13:12Z</time></trkpt><trkpt lat="51.8874751311" lon="-1.9726852700"><ele>229.89</ele><time>2017-04-26T10:13:13Z</time></trkpt><trkpt lat="51.8874911405" lon="-1.9727047998"><ele>229.41</ele><time>2017-04-26T10:14:11Z</time></trkpt><trkpt lat="51.8874793220" lon="-1.9727055542"><ele>229.89</ele><time>2017-04-26T10:14:13Z</time></trkpt><trkpt lat="51.8874485604" lon="-1.9728528243"><ele>228.93</ele><time>2017-04-26T10:14:27Z</time></trkpt><trkpt lat="51.8874566909" lon="-1.9730817340"><ele>225.57</ele><time>2017-04-26T10:14:40Z</time></trkpt><trkpt lat="51.8874601275" lon="-1.9732911140"><ele>222.20</ele><time>2017-04-26T10:14:52Z</time></trkpt><trkpt lat="51.8874688447" lon="-1.9734042697"><ele>220.28</ele><time>2017-04-26T10:15:00Z</time></trkpt><trkpt lat="51.8874812499" lon="-1.9735863246"><ele>216.91</ele><time>2017-04-26T10:15:10Z</time></trkpt><trkpt lat="51.8874822557" lon="-1.9736044295"><ele>216.91</ele><time>2017-04-26T10:15:11Z</time></trkpt><trkpt lat="51.8874862790" lon="-1.9737748336"><ele>214.51</ele><time>2017-04-26T10:15:18Z</time></trkpt><trkpt lat="51.8874970078" lon="-1.9739178289"><ele>212.11</ele><time>2017-04-26T10:15:23Z</time></trkpt><trkpt lat="51.8875137717" lon="-1.9742689468"><ele>208.74</ele><time>2017-04-26T10:15:37Z</time></trkpt><trkpt lat="51.8875178788" lon="-1.9746613037"><ele>205.86</ele><time>2017-04-26T10:15:52Z</time></trkpt><trkpt lat="51.8875129335" lon="-1.9747544266"><ele>201.53</ele><time>2017-04-26T10:15:57Z</time></trkpt><trkpt lat="51.8875099160" lon="-1.9747733697"><ele>207.78</ele><time>2017-04-26T10:15:58Z</time></trkpt><trkpt lat="51.8875270151" lon="-1.9750938937"><ele>202.98</ele><time>2017-04-26T10:16:15Z</time></trkpt><trkpt lat="51.8875307031" lon="-1.9754503760"><ele>202.49</ele><time>2017-04-26T10:16:31Z</time></trkpt><trkpt lat="51.8875005282" lon="-1.9756043516"><ele>201.05</ele><time>2017-04-26T10:16:45Z</time></trkpt><trkpt lat="51.8874010351" lon="-1.9758960418"><ele>199.61</ele><time>2017-04-26T10:17:03Z</time></trkpt><trkpt lat="51.8873899709" lon="-1.9761054218"><ele>199.13</ele><time>2017-04-26T10:17:16Z</time></trkpt><trkpt lat="51.8874122668" lon="-1.9764283765"><ele>200.09</ele><time>2017-04-26T10:17:35Z</time></trkpt><trkpt lat="51.8873975147" lon="-1.9765775744"><ele>199.61</ele><time>2017-04-26T10:17:55Z</time></trkpt><trkpt lat="51.8873782363" lon="-1.9766564481"><ele>199.13</ele><time>2017-04-26T10:18:14Z</time></trkpt><trkpt lat="51.8873924017" lon="-1.9768768083"><ele>197.21</ele><time>2017-04-26T10:18:35Z</time></trkpt><trkpt lat="51.8874398433" lon="-1.9770092424"><ele>196.25</ele><time>2017-04-26T10:18:56Z</time></trkpt><trkpt lat="51.8874717783" lon="-1.9772140961"><ele>195.77</ele><time>2017-04-26T10:19:15Z</time></trkpt><trkpt lat="51.8874619715" lon="-1.9773865119"><ele>196.73</ele><time>2017-04-26T10:19:37Z</time></trkpt><trkpt lat="51.8874655757" lon="-1.9774231408"><ele>196.73</ele><time>2017-04-26T10:20:00Z</time></trkpt><trkpt lat="51.8874137755" lon="-1.9775572512"><ele>197.21</ele><time>2017-04-26T10:20:24Z</time></trkpt><trkpt lat="51.8873996101" lon="-1.9775779545"><ele>196.73</ele><time>2017-04-26T10:20:25Z</time></trkpt><trkpt lat="51.8872162979" lon="-1.9777946267"><ele>195.77</ele><time>2017-04-26T10:20:43Z</time></trkpt><trkpt lat="51.8870473187" lon="-1.9779877458"><ele>194.80</ele><time>2017-04-26T10:21:01Z</time></trkpt><trkpt lat="51.8869079277" lon="-1.9781844690"><ele>193.84</ele><time>2017-04-26T10:21:19Z</time></trkpt><trkpt lat="51.8868523557" lon="-1.9782912545"><ele>193.36</ele><time>2017-04-26T10:21:36Z</time></trkpt><trkpt lat="51.8868505117" lon="-1.9782891590"><ele>193.84</ele><time>2017-04-26T10:22:00Z</time></trkpt><trkpt lat="51.8868359271" lon="-1.9783077668"><ele>192.88</ele><time>2017-04-26T10:22:26Z</time></trkpt><trkpt lat="51.8866948597" lon="-1.9784461521"><ele>190.48</ele><time>2017-04-26T10:22:42Z</time></trkpt><trkpt lat="51.8865605816" lon="-1.9786653388"><ele>187.59</ele><time>2017-04-26T10:23:00Z</time></trkpt><trkpt lat="51.8864854798" lon="-1.9787878823"><ele>187.59</ele><time>2017-04-26T10:23:17Z</time></trkpt><trkpt lat="51.8864782713" lon="-1.9788399339"><ele>187.11</ele><time>2017-04-26T10:23:33Z</time></trkpt><trkpt lat="51.8864751700" lon="-1.9788500760"><ele>186.63</ele><time>2017-04-26T10:24:00Z</time></trkpt><trkpt lat="51.8864713982" lon="-1.9788577873"><ele>187.11</ele><time>2017-04-26T10:24:22Z</time></trkpt><trkpt lat="51.8864705600" lon="-1.9788634032"><ele>186.63</ele><time>2017-04-26T10:24:46Z</time></trkpt><trkpt lat="51.8864346854" lon="-1.9789469708"><ele>186.15</ele><time>2017-04-26T10:25:05Z</time></trkpt><trkpt lat="51.8863269780" lon="-1.9790195581"><ele>185.19</ele><time>2017-04-26T10:25:20Z</time></trkpt><trkpt lat="51.8862835597" lon="-1.9788909797"><ele>185.19</ele><time>2017-04-26T10:25:33Z</time></trkpt><trkpt lat="51.8862261437" lon="-1.9786375947"><ele>185.19</ele><time>2017-04-26T10:25:51Z</time></trkpt><trkpt lat="51.8861697335" lon="-1.9783764984"><ele>185.67</ele><time>2017-04-26T10:26:09Z</time></trkpt><trkpt lat="51.8861010857" lon="-1.9781014882"><ele>186.15</ele><time>2017-04-26T10:26:29Z</time></trkpt><trkpt lat="51.8860108964" lon="-1.9778808765"><ele>187.59</ele><time>2017-04-26T10:26:47Z</time></trkpt><trkpt lat="51.8859566655" lon="-1.9777230453"><ele>187.11</ele><time>2017-04-26T10:26:58Z</time></trkpt><trkpt lat="51.8858013488" lon="-1.9774145074"><ele>188.08</ele><time>2017-04-26T10:27:19Z</time></trkpt><trkpt lat="51.8857085612" lon="-1.9772208016"><ele>190.96</ele><time>2017-04-26T10:27:36Z</time></trkpt><trkpt lat="51.8855479639" lon="-1.9769416004"><ele>191.92</ele><time>2017-04-26T10:27:59Z</time></trkpt><trkpt lat="51.8854633905" lon="-1.9767528400"><ele>192.88</ele><time>2017-04-26T10:28:17Z</time></trkpt><trkpt lat="51.8853186350" lon="-1.9764922466"><ele>193.36</ele><time>2017-04-26T10:28:36Z</time></trkpt><trkpt lat="51.8852039706" lon="-1.9762355927"><ele>192.88</ele><time>2017-04-26T10:28:54Z</time></trkpt><trkpt lat="51.8850757275" lon="-1.9759840518"><ele>193.36</ele><time>2017-04-26T10:29:14Z</time></trkpt><trkpt lat="51.8849702831" lon="-1.9757202733"><ele>192.88</ele><time>2017-04-26T10:29:32Z</time></trkpt><trkpt lat="51.8848697003" lon="-1.9754994940"><ele>194.32</ele><time>2017-04-26T10:29:47Z</time></trkpt><trkpt lat="51.8847702071" lon="-1.9752581790"><ele>194.32</ele><time>2017-04-26T10:30:04Z</time></trkpt><trkpt lat="51.8846247811" lon="-1.9749638904"><ele>194.80</ele><time>2017-04-26T10:30:25Z</time></trkpt><trkpt lat="51.8844868988" lon="-1.9747294486"><ele>195.28</ele><time>2017-04-26T10:30:45Z</time></trkpt><trkpt lat="51.8843641877" lon="-1.9744740520"><ele>196.25</ele><time>2017-04-26T10:31:04Z</time></trkpt><trkpt lat="51.8842347711" lon="-1.9741166476"><ele>197.21</ele><time>2017-04-26T10:31:26Z</time></trkpt><trkpt lat="51.8841510359" lon="-1.9738138933"><ele>197.69</ele><time>2017-04-26T10:31:48Z</time></trkpt><trkpt lat="51.8841316737" lon="-1.9737268891"><ele>197.69</ele><time>2017-04-26T10:31:52Z</time></trkpt><trkpt lat="51.8840168417" lon="-1.9733840693"><ele>198.65</ele><time>2017-04-26T10:32:15Z</time></trkpt><trkpt lat="51.8839554861" lon="-1.9730449375"><ele>199.13</ele><time>2017-04-26T10:32:37Z</time></trkpt><trkpt lat="51.8838980701" lon="-1.9727215637"><ele>199.61</ele><time>2017-04-26T10:32:55Z</time></trkpt><trkpt lat="51.8838522211" lon="-1.9723325595"><ele>200.09</ele><time>2017-04-26T10:33:17Z</time></trkpt><trkpt lat="51.8838096410" lon="-1.9719683658"><ele>199.61</ele><time>2017-04-26T10:33:40Z</time></trkpt><trkpt lat="51.8837643787" lon="-1.9716231152"><ele>201.05</ele><time>2017-04-26T10:34:01Z</time></trkpt><trkpt lat="51.8837503809" lon="-1.9713791180"><ele>201.53</ele><time>2017-04-26T10:34:22Z</time></trkpt><trkpt lat="51.8836646341" lon="-1.9710002560"><ele>201.05</ele><time>2017-04-26T10:34:43Z</time></trkpt><trkpt lat="51.8836137559" lon="-1.9705977570"><ele>201.53</ele><time>2017-04-26T10:35:06Z</time></trkpt><trkpt lat="51.8835615367" lon="-1.9702447113"><ele>202.01</ele><time>2017-04-26T10:35:29Z</time></trkpt><trkpt lat="51.8835309427" lon="-1.9698987901"><ele>202.98</ele><time>2017-04-26T10:35:53Z</time></trkpt><trkpt lat="51.8834917992" lon="-1.9695051759"><ele>202.01</ele><time>2017-04-26T10:36:14Z</time></trkpt><trkpt lat="51.8834956549" lon="-1.9691455085"><ele>203.46</ele><time>2017-04-26T10:36:34Z</time></trkpt><trkpt lat="51.8834889494" lon="-1.9688328635"><ele>204.42</ele><time>2017-04-26T10:36:50Z</time></trkpt><trkpt lat="51.8834648095" lon="-1.9685159437"><ele>203.46</ele><time>2017-04-26T10:37:09Z</time></trkpt><trkpt lat="51.8834689166" lon="-1.9681945816"><ele>203.94</ele><time>2017-04-26T10:37:29Z</time></trkpt><trkpt lat="51.8834268395" lon="-1.9678517617"><ele>203.94</ele><time>2017-04-26T10:37:48Z</time></trkpt><trkpt lat="51.8834064715" lon="-1.9675078522"><ele>203.94</ele><time>2017-04-26T10:38:08Z</time></trkpt><trkpt lat="51.8834011070" lon="-1.9671527948"><ele>204.42</ele><time>2017-04-26T10:38:29Z</time></trkpt><trkpt lat="51.8833198864" lon="-1.9667983241"><ele>203.46</ele><time>2017-04-26T10:38:47Z</time></trkpt><trkpt lat="51.8832182977" lon="-1.9665922131"><ele>201.05</ele><time>2017-04-26T10:39:06Z</time></trkpt><trkpt lat="51.8832234945" lon="-1.9666176103"><ele>201.05</ele><time>2017-04-26T10:39:36Z</time></trkpt><trkpt lat="51.8831271864" lon="-1.9666556641"><ele>199.61</ele><time>2017-04-26T10:39:53Z</time></trkpt><trkpt lat="51.8829906452" lon="-1.9666676503"><ele>197.21</ele><time>2017-04-26T10:40:09Z</time></trkpt><trkpt lat="51.8828272820" lon="-1.9667223003"><ele>194.80</ele><time>2017-04-26T10:40:28Z</time></trkpt><trkpt lat="51.8826805986" lon="-1.9667516369"><ele>192.88</ele><time>2017-04-26T10:40:45Z</time></trkpt><trkpt lat="51.8826020602" lon="-1.9667542353"><ele>191.92</ele><time>2017-04-26T10:40:52Z</time></trkpt><trkpt lat="51.8824534491" lon="-1.9668071251"><ele>190.96</ele><time>2017-04-26T10:41:10Z</time></trkpt><trkpt lat="51.8822715618" lon="-1.9668359589"><ele>189.04</ele><time>2017-04-26T10:41:29Z</time></trkpt><trkpt lat="51.8821008224" lon="-1.9668447599"><ele>187.11</ele><time>2017-04-26T10:41:47Z</time></trkpt><trkpt lat="51.8819240481" lon="-1.9668970630"><ele>185.19</ele><time>2017-04-26T10:42:06Z</time></trkpt><trkpt lat="51.8817436695" lon="-1.9669263158"><ele>184.23</ele><time>2017-04-26T10:42:24Z</time></trkpt><trkpt lat="51.8815751933" lon="-1.9669503719"><ele>182.31</ele><time>2017-04-26T10:42:42Z</time></trkpt><trkpt lat="51.8813691661" lon="-1.9669735897"><ele>181.35</ele><time>2017-04-26T10:43:02Z</time></trkpt><trkpt lat="51.8812073953" lon="-1.9670040160"><ele>180.38</ele><time>2017-04-26T10:43:20Z</time></trkpt><trkpt lat="51.8810070679" lon="-1.9670004956"><ele>178.46</ele><time>2017-04-26T10:43:39Z</time></trkpt><trkpt lat="51.8808472250" lon="-1.9670136552"><ele>177.02</ele><time>2017-04-26T10:43:57Z</time></trkpt><trkpt lat="51.8806570396" lon="-1.9670381304"><ele>177.02</ele><time>2017-04-26T10:44:15Z</time></trkpt><trkpt lat="51.8805489969" lon="-1.9670320954"><ele>176.54</ele><time>2017-04-26T10:44:28Z</time></trkpt><trkpt lat="51.8805209175" lon="-1.9668859988"><ele>175.58</ele><time>2017-04-26T10:44:44Z</time></trkpt><trkpt lat="51.8805303890" lon="-1.9667714182"><ele>175.58</ele><time>2017-04-26T10:44:50Z</time></trkpt><trkpt lat="51.8805551156" lon="-1.9665639661"><ele>175.10</ele><time>2017-04-26T10:45:06Z</time></trkpt><trkpt lat="51.8805719633" lon="-1.9663058873"><ele>174.62</ele><time>2017-04-26T10:45:20Z</time></trkpt><trkpt lat="51.8806124479" lon="-1.9660405163"><ele>174.14</ele><time>2017-04-26T10:45:39Z</time></trkpt><trkpt lat="51.8806370907" lon="-1.9658370037"><ele>174.14</ele><time>2017-04-26T10:45:53Z</time></trkpt><trkpt lat="51.8806565367" lon="-1.9657103531"><ele>173.66</ele><time>2017-04-26T10:46:01Z</time></trkpt><trkpt lat="51.8806830235" lon="-1.9653785974"><ele>173.17</ele><time>2017-04-26T10:46:20Z</time></trkpt><trkpt lat="51.8807318062" lon="-1.9651549682"><ele>172.69</ele><time>2017-04-26T10:46:35Z</time></trkpt><trkpt lat="51.8807561975" lon="-1.9648908544"><ele>172.69</ele><time>2017-04-26T10:46:52Z</time></trkpt><trkpt lat="51.8807898089" lon="-1.9646931253"><ele>173.17</ele><time>2017-04-26T10:47:06Z</time></trkpt><trkpt lat="51.8808237556" lon="-1.9644555822"><ele>171.25</ele><time>2017-04-26T10:47:23Z</time></trkpt><trkpt lat="51.8808631506" lon="-1.9641729444"><ele>172.21</ele><time>2017-04-26T10:47:41Z</time></trkpt><trkpt lat="51.8808803335" lon="-1.9638560247"><ele>171.25</ele><time>2017-04-26T10:47:59Z</time></trkpt><trkpt lat="51.8809294514" lon="-1.9635868818"><ele>170.77</ele><time>2017-04-26T10:48:17Z</time></trkpt><trkpt lat="51.8809612188" lon="-1.9633407891"><ele>168.85</ele><time>2017-04-26T10:48:35Z</time></trkpt><trkpt lat="51.8810233288" lon="-1.9630908407"><ele>168.85</ele><time>2017-04-26T10:48:53Z</time></trkpt><trkpt lat="51.8810399249" lon="-1.9630138110"><ele>168.37</ele><time>2017-04-26T10:49:11Z</time></trkpt><trkpt lat="51.8810410146" lon="-1.9630169962"><ele>168.37</ele><time>2017-04-26T10:49:39Z</time></trkpt><trkpt lat="51.8810362369" lon="-1.9630249590"><ele>168.37</ele><time>2017-04-26T10:49:58Z</time></trkpt><trkpt lat="51.8810405955" lon="-1.9630269706"><ele>168.37</ele><time>2017-04-26T10:50:19Z</time></trkpt><trkpt lat="51.8810451217" lon="-1.9630158227"><ele>167.89</ele><time>2017-04-26T10:50:41Z</time></trkpt><trkpt lat="51.8810500670" lon="-1.9630156551"><ele>168.37</ele><time>2017-04-26T10:51:16Z</time></trkpt><trkpt lat="51.8810610473" lon="-1.9629831333"><ele>166.45</ele><time>2017-04-26T10:51:33Z</time></trkpt><trkpt lat="51.8810642324" lon="-1.9629112165"><ele>165.96</ele><time>2017-04-26T10:51:54Z</time></trkpt><trkpt lat="51.8810240831" lon="-1.9627398904"><ele>165.96</ele><time>2017-04-26T10:52:13Z</time></trkpt><trkpt lat="51.8810158689" lon="-1.9627145771"><ele>165.96</ele><time>2017-04-26T10:52:35Z</time></trkpt><trkpt lat="51.8810088281" lon="-1.9627187680"><ele>166.45</ele><time>2017-04-26T10:52:54Z</time></trkpt><trkpt lat="51.8810421042" lon="-1.9627286587"><ele>166.93</ele><time>2017-04-26T10:53:17Z</time></trkpt><trkpt lat="51.8810418528" lon="-1.9627118949"><ele>166.45</ele><time>2017-04-26T10:53:40Z</time></trkpt><trkpt lat="51.8810496479" lon="-1.9626943767"><ele>166.45</ele><time>2017-04-26T10:53:59Z</time></trkpt><trkpt lat="51.8810535874" lon="-1.9626943767"><ele>166.93</ele><time>2017-04-26T10:54:19Z</time></trkpt><trkpt lat="51.8810332194" lon="-1.9625907764"><ele>166.45</ele><time>2017-04-26T10:54:40Z</time></trkpt><trkpt lat="51.8810268492" lon="-1.9625175186"><ele>165.00</ele><time>2017-04-26T10:54:55Z</time></trkpt><trkpt lat="51.8810512405" lon="-1.9624154270"><ele>165.96</ele><time>2017-04-26T10:55:13Z</time></trkpt><trkpt lat="51.8810385000" lon="-1.9620320387"><ele>166.45</ele><time>2017-04-26T10:55:34Z</time></trkpt><trkpt lat="51.8810782302" lon="-1.9619379938"><ele>166.45</ele><time>2017-04-26T10:55:50Z</time></trkpt><trkpt lat="51.8810820859" lon="-1.9619348925"><ele>163.08</ele><time>2017-04-26T10:55:56Z</time></trkpt><trkpt lat="51.8810818344" lon="-1.9619338866"><ele>165.96</ele><time>2017-04-26T10:55:57Z</time></trkpt><trkpt lat="51.8810602091" lon="-1.9619105849"><ele>165.48</ele><time>2017-04-26T10:56:25Z</time></trkpt><trkpt lat="51.8810773920" lon="-1.9619238283"><ele>165.48</ele><time>2017-04-26T10:56:46Z</time></trkpt><trkpt lat="51.8810740393" lon="-1.9619184639"><ele>165.48</ele><time>2017-04-26T10:57:12Z</time></trkpt><trkpt lat="51.8811008614" lon="-1.9617590401"><ele>165.00</ele><time>2017-04-26T10:57:25Z</time></trkpt><trkpt lat="51.8810955808" lon="-1.9616634026"><ele>165.00</ele><time>2017-04-26T10:57:30Z</time></trkpt><trkpt lat="51.8811606243" lon="-1.9614044018"><ele>165.00</ele><time>2017-04-26T10:57:47Z</time></trkpt><trkpt lat="51.8812389951" lon="-1.9611329120"><ele>165.96</ele><time>2017-04-26T10:58:07Z</time></trkpt><trkpt lat="51.8814358022" lon="-1.9608230330"><ele>167.41</ele><time>2017-04-26T10:58:26Z</time></trkpt><trkpt lat="51.8814440165" lon="-1.9607652817"><ele>167.41</ele><time>2017-04-26T10:58:41Z</time></trkpt><trkpt lat="51.8816729262" lon="-1.9605029281"><ele>168.37</ele><time>2017-04-26T10:59:01Z</time></trkpt><trkpt lat="51.8818776961" lon="-1.9602404069"><ele>168.85</ele><time>2017-04-26T10:59:20Z</time></trkpt><trkpt lat="51.8820414785" lon="-1.9599718507"><ele>168.37</ele><time>2017-04-26T10:59:40Z</time></trkpt><trkpt lat="51.8822154868" lon="-1.9598677475"><ele>168.85</ele><time>2017-04-26T11:00:00Z</time></trkpt><trkpt lat="51.8823378626" lon="-1.9597759657"><ele>169.33</ele><time>2017-04-26T11:00:12Z</time></trkpt><trkpt lat="51.8824726436" lon="-1.9596105907"><ele>170.77</ele><time>2017-04-26T11:00:30Z</time></trkpt><trkpt lat="51.8826229312" lon="-1.9594945852"><ele>172.69</ele><time>2017-04-26T11:00:49Z</time></trkpt><trkpt lat="51.8828230072" lon="-1.9594169687"><ele>174.14</ele><time>2017-04-26T11:01:09Z</time></trkpt><trkpt lat="51.8829671759" lon="-1.9593625702"><ele>175.58</ele><time>2017-04-26T11:01:25Z</time></trkpt><trkpt lat="51.8831670843" lon="-1.9592962693"><ele>176.54</ele><time>2017-04-26T11:01:48Z</time></trkpt><trkpt lat="51.8833104149" lon="-1.9592575449"><ele>176.54</ele><time>2017-04-26T11:02:06Z</time></trkpt><trkpt lat="51.8835117482" lon="-1.9592491630"><ele>177.98</ele><time>2017-04-26T11:02:26Z</time></trkpt><trkpt lat="51.8837125786" lon="-1.9592027273"><ele>178.46</ele><time>2017-04-26T11:02:48Z</time></trkpt><trkpt lat="51.8839369621" lon="-1.9591725525"><ele>178.94</ele><time>2017-04-26T11:03:09Z</time></trkpt><trkpt lat="51.8841150776" lon="-1.9590799324"><ele>179.42</ele><time>2017-04-26T11:03:29Z</time></trkpt><trkpt lat="51.8842653651" lon="-1.9589161500"><ele>179.90</ele><time>2017-04-26T11:03:48Z</time></trkpt><trkpt lat="51.8843408860" lon="-1.9585974701"><ele>179.90</ele><time>2017-04-26T11:04:08Z</time></trkpt><trkpt lat="51.8843112979" lon="-1.9583941251"><ele>180.38</ele><time>2017-04-26T11:04:27Z</time></trkpt><trkpt lat="51.8843544647" lon="-1.9582005870"><ele>181.35</ele><time>2017-04-26T11:04:42Z</time></trkpt><trkpt lat="51.8843045086" lon="-1.9578818232"><ele>181.83</ele><time>2017-04-26T11:05:01Z</time></trkpt><trkpt lat="51.8843023293" lon="-1.9578461163"><ele>181.83</ele><time>2017-04-26T11:05:03Z</time></trkpt><trkpt lat="51.8843845557" lon="-1.9575556833"><ele>180.87</ele><time>2017-04-26T11:05:20Z</time></trkpt><trkpt lat="51.8843861483" lon="-1.9572938327"><ele>179.42</ele><time>2017-04-26T11:05:37Z</time></trkpt><trkpt lat="51.8843720667" lon="-1.9570800103"><ele>178.46</ele><time>2017-04-26T11:05:57Z</time></trkpt><trkpt lat="51.8843803648" lon="-1.9569812715"><ele>177.50</ele><time>2017-04-26T11:06:17Z</time></trkpt><trkpt lat="51.8843805324" lon="-1.9568777550"><ele>177.02</ele><time>2017-04-26T11:06:36Z</time></trkpt><trkpt lat="51.8844179995" lon="-1.9564812072"><ele>177.98</ele><time>2017-04-26T11:06:58Z</time></trkpt><trkpt lat="51.8844159879" lon="-1.9559527282"><ele>179.42</ele><time>2017-04-26T11:07:22Z</time></trkpt><trkpt lat="51.8846153095" lon="-1.9554817490"><ele>179.42</ele><time>2017-04-26T11:07:44Z</time></trkpt><trkpt lat="51.8847064208" lon="-1.9551933277"><ele>180.38</ele><time>2017-04-26T11:08:03Z</time></trkpt><trkpt lat="51.8848305568" lon="-1.9549298845"><ele>181.83</ele><time>2017-04-26T11:08:26Z</time></trkpt><trkpt lat="51.8848674372" lon="-1.9547365140"><ele>182.79</ele><time>2017-04-26T11:08:45Z</time></trkpt><trkpt lat="51.8850285374" lon="-1.9544444047"><ele>184.23</ele><time>2017-04-26T11:09:06Z</time></trkpt><trkpt lat="51.8850623164" lon="-1.9543601666"><ele>184.71</ele><time>2017-04-26T11:09:29Z</time></trkpt><trkpt lat="51.8850805052" lon="-1.9542714860"><ele>183.75</ele><time>2017-04-26T11:09:47Z</time></trkpt><trkpt lat="51.8851359934" lon="-1.9541549776"><ele>184.23</ele><time>2017-04-26T11:10:01Z</time></trkpt><trkpt lat="51.8853022903" lon="-1.9540667161"><ele>183.75</ele><time>2017-04-26T11:10:06Z</time></trkpt><trkpt lat="51.8854372390" lon="-1.9539165962"><ele>185.19</ele><time>2017-04-26T11:10:20Z</time></trkpt><trkpt lat="51.8855066411" lon="-1.9538065419"><ele>185.67</ele><time>2017-04-26T11:10:32Z</time></trkpt><trkpt lat="51.8856572639" lon="-1.9536137581"><ele>186.15</ele><time>2017-04-26T11:10:52Z</time></trkpt><trkpt lat="51.8857743591" lon="-1.9534611236"><ele>186.63</ele><time>2017-04-26T11:11:06Z</time></trkpt><trkpt lat="51.8858903646" lon="-1.9533035439"><ele>186.63</ele><time>2017-04-26T11:11:21Z</time></trkpt><trkpt lat="51.8859990779" lon="-1.9531062339"><ele>186.63</ele><time>2017-04-26T11:11:37Z</time></trkpt><trkpt lat="51.8860874232" lon="-1.9529894739"><ele>187.59</ele><time>2017-04-26T11:11:52Z</time></trkpt><trkpt lat="51.8860931229" lon="-1.9529805053"><ele>188.08</ele><time>2017-04-26T11:11:53Z</time></trkpt><trkpt lat="51.8861060310" lon="-1.9529601373"><ele>187.59</ele><time>2017-04-26T11:11:55Z</time></trkpt><trkpt lat="51.8861166760" lon="-1.9529235084"><ele>188.08</ele><time>2017-04-26T11:12:10Z</time></trkpt><trkpt lat="51.8860931229" lon="-1.9529230893"><ele>188.56</ele><time>2017-04-26T11:12:32Z</time></trkpt><trkpt lat="51.8861055281" lon="-1.9529041462"><ele>188.56</ele><time>2017-04-26T11:12:45Z</time></trkpt><trkpt lat="51.8861615192" lon="-1.9528453890"><ele>189.52</ele><time>2017-04-26T11:13:02Z</time></trkpt><trkpt lat="51.8862832244" lon="-1.9527118653"><ele>189.04</ele><time>2017-04-26T11:13:15Z</time></trkpt><trkpt lat="51.8864063546" lon="-1.9525767490"><ele>189.52</ele><time>2017-04-26T11:13:29Z</time></trkpt><trkpt lat="51.8864972144" lon="-1.9524605758"><ele>186.15</ele><time>2017-04-26T11:13:41Z</time></trkpt><trkpt lat="51.8867003918" lon="-1.9522080291"><ele>187.59</ele><time>2017-04-26T11:14:04Z</time></trkpt><trkpt lat="51.8868270423" lon="-1.9520387985"><ele>187.11</ele><time>2017-04-26T11:14:20Z</time></trkpt><trkpt lat="51.8869664334" lon="-1.9518450089"><ele>187.11</ele><time>2017-04-26T11:14:39Z</time></trkpt><trkpt lat="51.8871512543" lon="-1.9516751077"><ele>187.11</ele><time>2017-04-26T11:14:58Z</time></trkpt><trkpt lat="51.8872296251" lon="-1.9515606947"><ele>187.11</ele><time>2017-04-26T11:15:18Z</time></trkpt><trkpt lat="51.8872349896" lon="-1.9515020214"><ele>187.59</ele><time>2017-04-26T11:15:37Z</time></trkpt><trkpt lat="51.8873113487" lon="-1.9515246525"><ele>187.11</ele><time>2017-04-26T11:15:55Z</time></trkpt><trkpt lat="51.8873709440" lon="-1.9514259975"><ele>188.56</ele><time>2017-04-26T11:16:13Z</time></trkpt><trkpt lat="51.8874178827" lon="-1.9513296057"><ele>189.04</ele><time>2017-04-26T11:16:28Z</time></trkpt><trkpt lat="51.8875645660" lon="-1.9512025360"><ele>189.04</ele><time>2017-04-26T11:16:44Z</time></trkpt><trkpt lat="51.8876837566" lon="-1.9510684256"><ele>190.00</ele><time>2017-04-26T11:17:02Z</time></trkpt><trkpt lat="51.8878223933" lon="-1.9509687647"><ele>191.44</ele><time>2017-04-26T11:17:18Z</time></trkpt><trkpt lat="51.8879748601" lon="-1.9508643262"><ele>192.40</ele><time>2017-04-26T11:17:36Z</time></trkpt><trkpt lat="51.8881058693" lon="-1.9507740531"><ele>193.36</ele><time>2017-04-26T11:17:52Z</time></trkpt><trkpt lat="51.8882802129" lon="-1.9506577961"><ele>194.32</ele><time>2017-04-26T11:18:11Z</time></trkpt><trkpt lat="51.8884298299" lon="-1.9505383540"><ele>196.25</ele><time>2017-04-26T11:18:28Z</time></trkpt><trkpt lat="51.8886096217" lon="-1.9504235219"><ele>196.25</ele><time>2017-04-26T11:18:50Z</time></trkpt><trkpt lat="51.8887267169" lon="-1.9503617473"><ele>197.21</ele><time>2017-04-26T11:19:05Z</time></trkpt><trkpt lat="51.8889152259" lon="-1.9503502641"><ele>196.73</ele><time>2017-04-26T11:19:23Z</time></trkpt><trkpt lat="51.8889920879" lon="-1.9503896590"><ele>195.77</ele><time>2017-04-26T11:19:39Z</time></trkpt><trkpt lat="51.8890079297" lon="-1.9504642580"><ele>194.80</ele><time>2017-04-26T11:19:52Z</time></trkpt><trkpt lat="51.8890335783" lon="-1.9505355880"><ele>193.36</ele><time>2017-04-26T11:20:06Z</time></trkpt><trkpt lat="51.8890748173" lon="-1.9506199937"><ele>192.40</ele><time>2017-04-26T11:20:14Z</time></trkpt><trkpt lat="51.8891772442" lon="-1.9507928286"><ele>190.00</ele><time>2017-04-26T11:20:29Z</time></trkpt><trkpt lat="51.8892790005" lon="-1.9508694392"><ele>190.00</ele><time>2017-04-26T11:20:43Z</time></trkpt><trkpt lat="51.8894128595" lon="-1.9509450439"><ele>189.04</ele><time>2017-04-26T11:20:59Z</time></trkpt><trkpt lat="51.8895416893" lon="-1.9510467164"><ele>188.08</ele><time>2017-04-26T11:21:16Z</time></trkpt><trkpt lat="51.8896880373" lon="-1.9512105826"><ele>186.15</ele><time>2017-04-26T11:21:37Z</time></trkpt><trkpt lat="51.8898840901" lon="-1.9512205571"><ele>185.19</ele><time>2017-04-26T11:21:57Z</time></trkpt><trkpt lat="51.8900575954" lon="-1.9513414241"><ele>185.19</ele><time>2017-04-26T11:22:18Z</time></trkpt><trkpt lat="51.8902093079" lon="-1.9514596090"><ele>184.71</ele><time>2017-04-26T11:22:37Z</time></trkpt><trkpt lat="51.8903445080" lon="-1.9515192881"><ele>184.71</ele><time>2017-04-26T11:22:52Z</time></trkpt><trkpt lat="51.8904160056" lon="-1.9515880197"><ele>184.23</ele><time>2017-04-26T11:23:00Z</time></trkpt><trkpt lat="51.8905581627" lon="-1.9516617805"><ele>184.23</ele><time>2017-04-26T11:23:16Z</time></trkpt><trkpt lat="51.8906626850" lon="-1.9517907780"><ele>183.75</ele><time>2017-04-26T11:23:32Z</time></trkpt><trkpt lat="51.8906798679" lon="-1.9518041052"><ele>184.23</ele><time>2017-04-26T11:23:34Z</time></trkpt><trkpt lat="51.8907100428" lon="-1.9518624432"><ele>182.79</ele><time>2017-04-26T11:23:38Z</time></trkpt><trkpt lat="51.8908335082" lon="-1.9520303328"><ele>182.79</ele><time>2017-04-26T11:23:55Z</time></trkpt><trkpt lat="51.8908373639" lon="-1.9520400558"><ele>182.79</ele><time>2017-04-26T11:23:56Z</time></trkpt><trkpt lat="51.8910057563" lon="-1.9521151576"><ele>180.87</ele><time>2017-04-26T11:24:16Z</time></trkpt><trkpt lat="51.8912192434" lon="-1.9521776028"><ele>178.94</ele><time>2017-04-26T11:24:35Z</time></trkpt><trkpt lat="51.8912504241" lon="-1.9521872420"><ele>178.94</ele><time>2017-04-26T11:24:38Z</time></trkpt><trkpt lat="51.8913994543" lon="-1.9522350188"><ele>179.42</ele><time>2017-04-26T11:24:53Z</time></trkpt><trkpt lat="51.8915291224" lon="-1.9522989728"><ele>181.35</ele><time>2017-04-26T11:25:09Z</time></trkpt><trkpt lat="51.8917050585" lon="-1.9522661995"><ele>182.79</ele><time>2017-04-26T11:25:25Z</time></trkpt><trkpt lat="51.8918584473" lon="-1.9521608390"><ele>183.75</ele><time>2017-04-26T11:25:41Z</time></trkpt><trkpt lat="51.8920228165" lon="-1.9520722423"><ele>185.19</ele><time>2017-04-26T11:25:58Z</time></trkpt><trkpt lat="51.8921808153" lon="-1.9519661274"><ele>186.15</ele><time>2017-04-26T11:26:14Z</time></trkpt><trkpt lat="51.8924001697" lon="-1.9519035984"><ele>186.63</ele><time>2017-04-26T11:26:35Z</time></trkpt><trkpt lat="51.8924278300" lon="-1.9518657960"><ele>187.11</ele><time>2017-04-26T11:26:55Z</time></trkpt><trkpt lat="51.8926383834" lon="-1.9517898560"><ele>188.08</ele><time>2017-04-26T11:27:13Z</time></trkpt><trkpt lat="51.8928095419" lon="-1.9517027680"><ele>190.00</ele><time>2017-04-26T11:27:32Z</time></trkpt><trkpt lat="51.8929539621" lon="-1.9515529834"><ele>190.48</ele><time>2017-04-26T11:27:49Z</time></trkpt><trkpt lat="51.8930293154" lon="-1.9514626265"><ele>190.96</ele><time>2017-04-26T11:28:05Z</time></trkpt><trkpt lat="51.8931587320" lon="-1.9513209723"><ele>191.92</ele><time>2017-04-26T11:28:20Z</time></trkpt><trkpt lat="51.8933268730" lon="-1.9511316251"><ele>192.40</ele><time>2017-04-26T11:28:38Z</time></trkpt><trkpt lat="51.8934292998" lon="-1.9509529229"><ele>192.40</ele><time>2017-04-26T11:28:52Z</time></trkpt><trkpt lat="51.8935232610" lon="-1.9507667609"><ele>192.40</ele><time>2017-04-26T11:29:06Z</time></trkpt><trkpt lat="51.8936586287" lon="-1.9505427126"><ele>192.88</ele><time>2017-04-26T11:29:23Z</time></trkpt><trkpt lat="51.8937585410" lon="-1.9503489230"><ele>192.88</ele><time>2017-04-26T11:29:38Z</time></trkpt><trkpt lat="51.8938414380" lon="-1.9501641020"><ele>193.36</ele><time>2017-04-26T11:29:52Z</time></trkpt><trkpt lat="51.8939186353" lon="-1.9500547182"><ele>193.84</ele><time>2017-04-26T11:30:09Z</time></trkpt><trkpt lat="51.8940006103" lon="-1.9498884212"><ele>193.36</ele><time>2017-04-26T11:30:25Z</time></trkpt><trkpt lat="51.8941264227" lon="-1.9496963918"><ele>193.36</ele><time>2017-04-26T11:30:42Z</time></trkpt><trkpt lat="51.8942511454" lon="-1.9495746028"><ele>193.84</ele><time>2017-04-26T11:30:56Z</time></trkpt><trkpt lat="51.8943766225" lon="-1.9494833238"><ele>194.32</ele><time>2017-04-26T11:31:09Z</time></trkpt><trkpt lat="51.8944281712" lon="-1.9494647160"><ele>194.80</ele><time>2017-04-26T11:31:14Z</time></trkpt><trkpt lat="51.8945881817" lon="-1.9494047016"><ele>195.77</ele><time>2017-04-26T11:31:30Z</time></trkpt><trkpt lat="51.8947260641" lon="-1.9493617024"><ele>196.73</ele><time>2017-04-26T11:31:43Z</time></trkpt><trkpt lat="51.8949009944" lon="-1.9493126683"><ele>197.69</ele><time>2017-04-26T11:32:01Z</time></trkpt><trkpt lat="51.8949765153" lon="-1.9492957368"><ele>197.69</ele><time>2017-04-26T11:32:08Z</time></trkpt><trkpt lat="51.8951072730" lon="-1.9492636342"><ele>197.69</ele><time>2017-04-26T11:32:20Z</time></trkpt><trkpt lat="51.8951766752" lon="-1.9492382370"><ele>197.21</ele><time>2017-04-26T11:32:29Z</time></trkpt><trkpt lat="51.8953278847" lon="-1.9491861854"><ele>197.21</ele><time>2017-04-26T11:32:45Z</time></trkpt><trkpt lat="51.8955466524" lon="-1.9491669070"><ele>195.77</ele><time>2017-04-26T11:33:06Z</time></trkpt><trkpt lat="51.8955935910" lon="-1.9491709303"><ele>195.77</ele><time>2017-04-26T11:33:11Z</time></trkpt><trkpt lat="51.8957753107" lon="-1.9491472933"><ele>194.80</ele><time>2017-04-26T11:33:27Z</time></trkpt><trkpt lat="51.8959804159" lon="-1.9491096586"><ele>193.36</ele><time>2017-04-26T11:33:46Z</time></trkpt><trkpt lat="51.8961756304" lon="-1.9490573555"><ele>191.44</ele><time>2017-04-26T11:34:04Z</time></trkpt><trkpt lat="51.8962622155" lon="-1.9490080699"><ele>190.96</ele><time>2017-04-26T11:34:13Z</time></trkpt><trkpt lat="51.8962999340" lon="-1.9489971735"><ele>190.96</ele><time>2017-04-26T11:34:16Z</time></trkpt><trkpt lat="51.8964903709" lon="-1.9489158690"><ele>190.00</ele><time>2017-04-26T11:34:34Z</time></trkpt><trkpt lat="51.8966851663" lon="-1.9488573633"><ele>190.00</ele><time>2017-04-26T11:34:52Z</time></trkpt><trkpt lat="51.8967606872" lon="-1.9488520827"><ele>190.00</ele><time>2017-04-26T11:34:59Z</time></trkpt><trkpt lat="51.8969419878" lon="-1.9488172140"><ele>190.96</ele><time>2017-04-26T11:35:17Z</time></trkpt><trkpt lat="51.8970956281" lon="-1.9488290325"><ele>192.40</ele><time>2017-04-26T11:35:34Z</time></trkpt><trkpt lat="51.8972889148" lon="-1.9488309603"><ele>193.84</ele><time>2017-04-26T11:35:52Z</time></trkpt><trkpt lat="51.8974801898" lon="-1.9488385040"><ele>195.28</ele><time>2017-04-26T11:36:10Z</time></trkpt><trkpt lat="51.8976609036" lon="-1.9488477241"><ele>195.77</ele><time>2017-04-26T11:36:27Z</time></trkpt><trkpt lat="51.8978339899" lon="-1.9487470575"><ele>196.25</ele><time>2017-04-26T11:36:43Z</time></trkpt><trkpt lat="51.8980058189" lon="-1.9486598019"><ele>197.21</ele><time>2017-04-26T11:37:00Z</time></trkpt><trkpt lat="51.8980551045" lon="-1.9486286212"><ele>196.73</ele><time>2017-04-26T11:37:05Z</time></trkpt><trkpt lat="51.8982116785" lon="-1.9485507533"><ele>198.17</ele><time>2017-04-26T11:37:20Z</time></trkpt><trkpt lat="51.8983797356" lon="-1.9484549481"><ele>199.13</ele><time>2017-04-26T11:37:38Z</time></trkpt><trkpt lat="51.8985694181" lon="-1.9483407866"><ele>199.13</ele><time>2017-04-26T11:37:56Z</time></trkpt><trkpt lat="51.8987300154" lon="-1.9482680317"><ele>199.61</ele><time>2017-04-26T11:38:12Z</time></trkpt><trkpt lat="51.8989060353" lon="-1.9482112862"><ele>200.09</ele><time>2017-04-26T11:38:28Z</time></trkpt><trkpt lat="51.8990998250" lon="-1.9481784292"><ele>200.09</ele><time>2017-04-26T11:38:45Z</time></trkpt><trkpt lat="51.8992322590" lon="-1.9481749088"><ele>201.05</ele><time>2017-04-26T11:38:59Z</time></trkpt><trkpt lat="51.8994162418" lon="-1.9481479190"><ele>201.05</ele><time>2017-04-26T11:39:18Z</time></trkpt><trkpt lat="51.8995938543" lon="-1.9481444824"><ele>200.09</ele><time>2017-04-26T11:39:36Z</time></trkpt><trkpt lat="51.8996946886" lon="-1.9481744897"><ele>199.61</ele><time>2017-04-26T11:39:45Z</time></trkpt><trkpt lat="51.8997791782" lon="-1.9483951014"><ele>197.21</ele><time>2017-04-26T11:40:02Z</time></trkpt><trkpt lat="51.8998007197" lon="-1.9485761505"><ele>196.73</ele><time>2017-04-26T11:40:12Z</time></trkpt><trkpt lat="51.8997810222" lon="-1.9489017036"><ele>195.77</ele><time>2017-04-26T11:40:32Z</time></trkpt><trkpt lat="51.8997453991" lon="-1.9491103292"><ele>195.28</ele><time>2017-04-26T11:40:46Z</time></trkpt><trkpt lat="51.8996571377" lon="-1.9491809886"><ele>195.28</ele><time>2017-04-26T11:40:56Z</time></trkpt><trkpt lat="51.8996063434" lon="-1.9491874427"><ele>195.28</ele><time>2017-04-26T11:41:00Z</time></trkpt><trkpt lat="51.8995535374" lon="-1.9491905440"><ele>195.28</ele><time>2017-04-26T11:41:04Z</time></trkpt><trkpt lat="51.8994408008" lon="-1.9492160250"><ele>195.28</ele><time>2017-04-26T11:41:14Z</time></trkpt><trkpt lat="51.8992626853" lon="-1.9493284263"><ele>194.32</ele><time>2017-04-26T11:41:31Z</time></trkpt><trkpt lat="51.8991672155" lon="-1.9495421648"><ele>193.36</ele><time>2017-04-26T11:41:46Z</time></trkpt><trkpt lat="51.8991237972" lon="-1.9496025983"><ele>192.88</ele><time>2017-04-26T11:41:52Z</time></trkpt><trkpt lat="51.8990263157" lon="-1.9495595153"><ele>193.84</ele><time>2017-04-26T11:42:02Z</time></trkpt><trkpt lat="51.8990118988" lon="-1.9495310169"><ele>193.84</ele><time>2017-04-26T11:42:04Z</time></trkpt><trkpt lat="51.8988880143" lon="-1.9494306017"><ele>193.84</ele><time>2017-04-26T11:42:17Z</time></trkpt><trkpt lat="51.8987498805" lon="-1.9493552484"><ele>194.32</ele><time>2017-04-26T11:42:32Z</time></trkpt><trkpt lat="51.8986933026" lon="-1.9493201282"><ele>194.80</ele><time>2017-04-26T11:42:45Z</time></trkpt><trkpt lat="51.8986939732" lon="-1.9493251573"><ele>194.80</ele><time>2017-04-26T11:42:58Z</time></trkpt></trkseg></trk></gpx>